createdAt,value
2023-03-29T00:00:12.353Z,1.73
2023-03-29T00:02:40.637Z,1.80
2023-03-29T00:05:12.385Z,2.00
2023-03-29T00:07:41.459Z,1.85
2023-03-29T00:10:11.457Z,2.40
2023-03-29T00:12:40.973Z,2.00
2023-03-29T00:15:09.990Z,2.28
2023-03-29T00:17:37.961Z,1.77
2023-03-29T00:20:10.116Z,2.40
2023-03-29T00:22:42.165Z,2.63
2023-03-29T00:25:10.953Z,1.73
2023-03-29T00:27:39.316Z,1.98
2023-03-29T00:30:10.133Z,2.08
2023-03-29T00:32:38.700Z,1.92
2023-03-29T00:35:07.578Z,2.20
2023-03-29T00:37:35.677Z,1.90
2023-03-29T00:40:08.429Z,1.90
2023-03-29T00:42:36.375Z,1.67
2023-03-29T00:45:07.316Z,2.65
2023-03-29T00:47:38.888Z,1.55
2023-03-29T00:50:12.441Z,2.05
2023-03-29T00:52:40.972Z,1.95
2023-03-29T00:55:13.762Z,2.08
2023-03-29T00:57:46.785Z,2.03
2023-03-29T01:00:18.202Z,1.90
2023-03-29T01:02:51.093Z,2.05
2023-03-29T01:05:22.645Z,1.85
2023-03-29T01:07:54.943Z,1.88
2023-03-29T01:10:27.579Z,2.10
2023-03-29T01:13:01.522Z,2.03
2023-03-29T01:15:30.045Z,1.70
2023-03-29T01:18:01.975Z,1.80
2023-03-29T01:20:43.366Z,1.53
2023-03-29T01:23:23.079Z,1.55
2023-03-29T01:25:58.143Z,1.50
2023-03-29T01:28:31.386Z,2.10
2023-03-29T01:31:04.053Z,2.20
2023-03-29T01:33:34.820Z,1.95
2023-03-29T01:36:08.152Z,1.58
2023-03-29T01:38:39.658Z,1.63
2023-03-29T01:41:07.958Z,1.52
2023-03-29T01:43:40.620Z,2.20
2023-03-29T01:46:10.809Z,1.52
2023-03-29T01:48:45.655Z,1.55
2023-03-29T01:51:16.990Z,2.00
2023-03-29T01:53:48.435Z,1.80
2023-03-29T01:56:19.317Z,1.70
2023-03-29T01:58:53.864Z,2.17
2023-03-29T02:01:26.485Z,2.13
2023-03-29T02:03:56.323Z,1.90
2023-03-29T02:06:28.099Z,1.85
2023-03-29T02:08:56.833Z,1.60
2023-03-29T02:11:27.060Z,1.63
2023-03-29T02:13:56.617Z,1.80
2023-03-29T02:16:25.526Z,2.15
2023-03-29T02:18:56.491Z,1.83
2023-03-29T02:21:27.712Z,1.58
2023-03-29T02:23:56.850Z,1.85
2023-03-29T02:26:25.313Z,1.92
2023-03-29T02:28:54.093Z,1.63
2023-03-29T02:31:26.258Z,1.60
2023-03-29T02:33:58.702Z,1.90
2023-03-29T02:36:31.143Z,1.63
2023-03-29T02:38:59.965Z,1.83
2023-03-29T02:41:28.342Z,1.85
2023-03-29T02:43:57.102Z,1.80
2023-03-29T02:46:26.757Z,1.75
2023-03-29T02:48:55.745Z,2.08
2023-03-29T02:51:27.666Z,1.80
2023-03-29T02:53:59.322Z,1.65
2023-03-29T02:56:27.493Z,1.98
2023-03-29T02:58:55.370Z,2.03
2023-03-29T03:01:23.696Z,1.58
2023-03-29T03:03:53.684Z,1.83
2023-03-29T03:06:22.182Z,1.73
2023-03-29T03:08:51.442Z,1.98
2023-03-29T03:11:19.358Z,1.75
2023-03-29T03:13:47.622Z,1.60
2023-03-29T03:16:15.602Z,2.28
2023-03-29T03:18:46.001Z,2.00
2023-03-29T03:21:15.542Z,2.28
2023-03-29T03:23:43.586Z,1.75
2023-03-29T03:26:12.537Z,2.10
2023-03-29T03:28:42.079Z,1.80
2023-03-29T03:31:17.598Z,1.50
2023-03-29T03:34:05.462Z,1.98
2023-03-29T03:36:42.713Z,1.60
2023-03-29T03:39:13.102Z,1.95
2023-03-29T03:41:41.260Z,1.70
2023-03-29T03:44:09.223Z,1.92
2023-03-29T03:46:38.268Z,1.98
2023-03-29T03:49:06.435Z,1.90
2023-03-29T03:51:39.576Z,2.17
2023-03-29T03:54:08.937Z,1.75
2023-03-29T03:56:37.414Z,2.40
2023-03-29T03:59:05.868Z,1.88
2023-03-29T04:02:02.999Z,2.17
2023-03-29T04:04:31.492Z,1.88
2023-03-29T04:07:18.032Z,1.90
2023-03-29T04:10:02.920Z,2.00
2023-03-29T04:12:31.069Z,2.30
2023-03-29T04:14:59.909Z,2.20
2023-03-29T04:17:28.650Z,1.88
2023-03-29T04:20:01.422Z,1.80
2023-03-29T04:22:33.263Z,1.90
2023-03-29T04:25:02.745Z,1.80
2023-03-29T04:27:36.312Z,2.10
2023-03-29T04:30:11.027Z,2.17
2023-03-29T04:33:01.508Z,2.47
2023-03-29T04:35:30.107Z,2.10
2023-03-29T04:37:58.081Z,2.63
2023-03-29T04:40:28.951Z,1.80
2023-03-29T04:43:19.060Z,2.33
2023-03-29T04:45:56.820Z,2.08
2023-03-29T04:48:43.678Z,2.03
2023-03-29T04:51:12.824Z,2.45
2023-03-29T04:53:41.744Z,2.42
2023-03-29T04:56:11.425Z,1.73
2023-03-29T04:59:02.615Z,2.20
2023-03-29T05:01:30.972Z,2.08
2023-03-29T05:03:59.837Z,2.40
2023-03-29T05:06:35.597Z,2.25
2023-03-29T05:09:04.905Z,2.40
2023-03-29T05:11:44.919Z,2.00
2023-03-29T05:14:13.856Z,1.77
2023-03-29T05:16:42.570Z,2.13
2023-03-29T05:19:11.344Z,2.03
2023-03-29T05:21:45.413Z,2.07
2023-03-29T05:24:16.575Z,2.30
2023-03-29T05:26:58.013Z,2.20
2023-03-29T05:29:28.063Z,2.30
2023-03-29T05:32:08.234Z,1.95
2023-03-29T05:34:37.099Z,2.60
2023-03-29T05:37:06.115Z,2.10
2023-03-29T05:39:46.321Z,1.88
2023-03-29T05:42:16.159Z,2.58
2023-03-29T05:44:54.539Z,2.72
2023-03-29T05:47:22.802Z,2.28
2023-03-29T05:49:51.534Z,2.05
2023-03-29T05:52:23.816Z,2.33
2023-03-29T05:54:56.912Z,1.77
2023-03-29T05:57:26.721Z,1.85
2023-03-29T05:59:55.047Z,1.65
2023-03-29T06:02:24.823Z,1.95
2023-03-29T06:04:55.555Z,2.50
2023-03-29T06:07:24.737Z,1.50
2023-03-29T06:10:23.533Z,1.95
2023-03-29T06:12:59.174Z,2.30
2023-03-29T06:15:27.437Z,2.00
2023-03-29T06:18:01.098Z,2.22
2023-03-29T06:20:29.270Z,2.63
2023-03-29T06:23:03.321Z,2.20
2023-03-29T06:25:31.916Z,3.00
2023-03-29T06:28:01.555Z,2.72
2023-03-29T06:30:29.860Z,2.47
2023-03-29T06:33:01.035Z,2.03
2023-03-29T06:35:48.046Z,3.33
2023-03-29T06:38:20.856Z,2.50
2023-03-29T06:41:04.044Z,2.45
2023-03-29T06:43:49.700Z,2.15
2023-03-29T06:46:17.684Z,2.05
2023-03-29T06:48:55.473Z,2.30
2023-03-29T06:51:24.905Z,2.20
2023-03-29T06:53:52.937Z,2.92
2023-03-29T06:56:22.558Z,2.40
2023-03-29T06:59:01.131Z,2.50
2023-03-29T07:01:37.974Z,2.33
2023-03-29T07:04:14.794Z,2.47
2023-03-29T07:07:02.538Z,2.70
2023-03-29T07:09:35.902Z,3.22
2023-03-29T07:12:36.165Z,2.83
2023-03-29T07:15:06.481Z,2.72
2023-03-29T07:17:53.307Z,2.67
2023-03-29T07:20:22.755Z,2.30
2023-03-29T07:22:59.185Z,2.83
2023-03-29T07:25:27.599Z,2.63
2023-03-29T07:27:55.876Z,2.47
2023-03-29T07:30:30.297Z,2.55
2023-03-29T07:33:12.429Z,2.67
2023-03-29T07:35:47.833Z,2.90
2023-03-29T07:38:16.524Z,2.90
2023-03-29T07:40:49.780Z,3.25
2023-03-29T07:43:38.045Z,2.58
2023-03-29T07:46:10.076Z,2.83
2023-03-29T07:48:39.398Z,2.60
2023-03-29T07:51:09.745Z,3.13
2023-03-29T07:53:50.188Z,2.75
2023-03-29T07:56:38.567Z,3.00
2023-03-29T07:59:29.919Z,2.47
2023-03-29T08:02:15.474Z,3.38
2023-03-29T08:04:48.373Z,3.55
2023-03-29T08:07:19.153Z,3.03
2023-03-29T08:10:06.905Z,4.13
2023-03-29T08:12:53.725Z,4.55
2023-03-29T08:15:29.100Z,3.78
2023-03-29T08:17:58.684Z,4.10
2023-03-29T08:20:27.573Z,3.85
2023-03-29T08:23:02.249Z,4.15
2023-03-29T08:25:30.577Z,4.32
2023-03-29T08:27:59.546Z,4.20
2023-03-29T08:30:48.167Z,4.25
2023-03-29T08:33:17.913Z,4.50
2023-03-29T08:35:51.439Z,4.10
2023-03-29T08:38:23.156Z,3.78
2023-03-29T08:40:52.128Z,3.70
2023-03-29T08:43:27.136Z,3.97
2023-03-29T08:46:24.566Z,4.93
2023-03-29T08:48:56.891Z,3.92
2023-03-29T08:51:29.381Z,4.57
2023-03-29T08:53:59.724Z,3.70
2023-03-29T08:56:37.573Z,4.53
2023-03-29T08:59:17.742Z,4.15
2023-03-29T09:01:48.456Z,3.88
2023-03-29T09:04:21.803Z,3.58
2023-03-29T09:06:59.615Z,4.50
2023-03-29T09:09:35.265Z,3.92
2023-03-29T09:12:22.684Z,3.65
2023-03-29T09:14:59.028Z,4.28
2023-03-29T09:17:36.946Z,4.15
2023-03-29T09:20:21.369Z,3.22
2023-03-29T09:22:52.973Z,3.70
2023-03-29T09:25:24.931Z,3.75
2023-03-29T09:28:00.131Z,4.05
2023-03-29T09:30:51.252Z,3.33
2023-03-29T09:33:24.564Z,4.25
2023-03-29T09:36:08.001Z,3.63
2023-03-29T09:38:41.010Z,4.07
2023-03-29T09:41:19.410Z,3.55
2023-03-29T09:43:48.548Z,3.92
2023-03-29T09:46:24.048Z,4.40
2023-03-29T09:48:52.503Z,4.03
2023-03-29T09:51:25.014Z,3.75
2023-03-29T09:53:53.094Z,3.45
2023-03-29T09:56:34.072Z,3.33
2023-03-29T09:59:12.240Z,3.90
2023-03-29T10:01:42.541Z,3.50
2023-03-29T10:04:12.046Z,3.70
2023-03-29T10:06:47.162Z,3.65
2023-03-29T10:09:17.538Z,4.00
2023-03-29T10:11:48.981Z,4.05
2023-03-29T10:14:19.304Z,3.72
2023-03-29T10:16:47.903Z,3.63
2023-03-29T10:19:19.864Z,3.63
2023-03-29T10:21:50.251Z,3.85
2023-03-29T10:24:22.551Z,4.03
2023-03-29T10:26:55.523Z,3.25
2023-03-29T10:29:24.312Z,3.35
2023-03-29T10:31:53.137Z,3.08
2023-03-29T10:34:25.290Z,4.38
2023-03-29T10:36:58.563Z,4.40
2023-03-29T10:39:28.900Z,3.25
2023-03-29T10:41:57.150Z,3.75
2023-03-29T10:46:10.949Z,4.07
2023-03-29T10:48:39.328Z,3.72
2023-03-29T10:51:07.812Z,4.13
2023-03-29T10:53:37.747Z,4.40
2023-03-29T10:56:24.514Z,4.10
2023-03-29T10:59:10.189Z,4.03
2023-03-29T11:01:48.061Z,4.70
2023-03-29T11:04:23.873Z,3.95
2023-03-29T11:06:59.851Z,3.75
2023-03-29T11:09:41.612Z,3.38
2023-03-29T11:12:16.653Z,2.78
2023-03-29T11:14:55.034Z,3.15
2023-03-29T11:17:33.437Z,2.53
2023-03-29T11:20:12.702Z,2.40
2023-03-29T11:22:47.668Z,2.40
2023-03-29T11:25:29.123Z,2.80
2023-03-29T11:28:03.826Z,2.70
2023-03-29T11:30:36.881Z,3.42
2023-03-29T11:33:22.214Z,3.25
2023-03-29T11:35:56.335Z,3.20
2023-03-29T11:38:29.215Z,3.08
2023-03-29T11:41:02.666Z,3.00
2023-03-29T11:43:35.119Z,3.03
2023-03-29T11:46:09.257Z,3.45
2023-03-29T11:48:44.283Z,3.40
2023-03-29T11:51:15.783Z,2.33
2023-03-29T11:53:50.346Z,2.53
2023-03-29T11:56:24.763Z,2.75
2023-03-29T11:58:59.602Z,3.25
2023-03-29T12:01:32.086Z,3.00
2023-03-29T12:04:04.747Z,2.38
2023-03-29T12:06:37.228Z,2.30
2023-03-29T12:09:10.878Z,2.70
2023-03-29T12:11:41.696Z,2.63
2023-03-29T12:14:12.760Z,3.20
2023-03-29T12:16:43.293Z,2.80
2023-03-29T12:19:19.267Z,2.45
2023-03-29T12:21:47.864Z,1.98
2023-03-29T12:24:19.022Z,2.60
2023-03-29T12:26:58.861Z,2.25
2023-03-29T12:29:41.557Z,2.50
2023-03-29T12:32:23.267Z,2.45
2023-03-29T12:35:15.492Z,2.63
2023-03-29T12:38:17.211Z,2.70
2023-03-29T12:41:22.231Z,2.72
2023-03-29T12:44:07.723Z,2.30
2023-03-29T12:46:42.227Z,2.70
2023-03-29T12:53:03.855Z,2.92
2023-03-29T12:55:35.575Z,2.78
2023-03-29T12:58:06.586Z,2.95
2023-03-29T13:00:43.837Z,3.15
2023-03-29T13:03:24.013Z,3.17
2023-03-29T13:06:01.413Z,2.95
2023-03-29T13:08:35.720Z,3.13
2023-03-29T13:11:04.493Z,2.72
2023-03-29T13:13:35.126Z,3.45
2023-03-29T13:16:15.829Z,2.83
2023-03-29T13:19:00.600Z,2.63
2023-03-29T13:21:36.733Z,2.80
2023-03-29T13:24:24.910Z,3.05
2023-03-29T13:26:58.347Z,2.92
2023-03-29T13:29:47.887Z,2.58
2023-03-29T13:32:27.599Z,2.80
2023-03-29T13:34:59.439Z,2.80
2023-03-29T13:37:36.726Z,2.70
2023-03-29T13:40:32.980Z,2.83
2023-03-29T13:43:02.021Z,3.10
2023-03-29T13:45:31.496Z,3.60
2023-03-29T13:48:05.706Z,3.22
2023-03-29T13:50:37.542Z,2.95
2023-03-29T13:53:11.842Z,2.72
2023-03-29T13:55:45.730Z,2.95
2023-03-29T13:58:15.862Z,3.00
2023-03-29T14:00:48.386Z,2.47
2023-03-29T14:03:18.563Z,2.60
2023-03-29T14:05:50.781Z,2.97
2023-03-29T14:08:23.218Z,2.60
2023-03-29T14:10:53.999Z,2.10
2023-03-29T14:13:24.423Z,3.20
2023-03-29T14:15:54.790Z,3.38
2023-03-29T14:18:24.377Z,3.13
2023-03-29T14:20:55.085Z,3.17
2023-03-29T14:23:25.143Z,3.47
2023-03-29T14:25:54.603Z,3.20
2023-03-29T14:28:23.846Z,3.35
2023-03-29T14:30:52.851Z,2.97
2023-03-29T14:33:28.316Z,3.10
2023-03-29T14:35:56.909Z,3.35
2023-03-29T14:38:26.286Z,3.10
2023-03-29T14:40:59.273Z,2.90
2023-03-29T14:45:59.023Z,2.90
2023-03-29T14:48:28.027Z,3.90
2023-03-29T14:50:56.274Z,3.60
2023-03-29T14:53:24.610Z,3.63
2023-03-29T14:55:55.611Z,3.42
2023-03-29T14:58:25.377Z,3.10
2023-03-29T15:00:54.020Z,3.95
2023-03-29T15:03:26.354Z,4.05
2023-03-29T15:05:56.522Z,4.22
2023-03-29T15:08:31.248Z,3.83
2023-03-29T15:11:01.257Z,4.03
2023-03-29T15:13:29.911Z,4.07
2023-03-29T15:16:00.064Z,4.28
2023-03-29T15:18:31.161Z,4.15
2023-03-29T15:20:59.917Z,4.28
2023-03-29T15:23:28.023Z,4.28
2023-03-29T15:25:58.483Z,3.70
2023-03-29T15:28:31.178Z,4.30
2023-03-29T15:31:07.868Z,4.72
2023-03-29T15:33:37.988Z,5.07
2023-03-29T15:36:07.643Z,4.30
2023-03-29T15:38:43.273Z,5.05
2023-03-29T15:41:14.700Z,4.57
2023-03-29T15:43:44.673Z,4.45
2023-03-29T15:46:13.854Z,4.78
2023-03-29T15:48:42.280Z,4.32
2023-03-29T15:51:11.777Z,4.00
2023-03-29T15:53:39.993Z,4.80
2023-03-29T15:56:10.199Z,4.70
2023-03-29T15:58:38.554Z,4.53
2023-03-29T16:01:16.074Z,4.03
2023-03-29T16:03:47.638Z,5.18
2023-03-29T16:06:17.591Z,4.40
2023-03-29T16:08:46.118Z,5.50
2023-03-29T16:11:14.255Z,5.55
2023-03-29T16:13:42.409Z,3.85
2023-03-29T16:16:12.733Z,4.80
2023-03-29T16:18:40.894Z,4.45
2023-03-29T16:21:12.634Z,4.22
2023-03-29T16:23:40.830Z,4.80
2023-03-29T16:26:09.426Z,5.43
2023-03-29T16:28:37.745Z,5.28
2023-03-29T16:31:06.200Z,5.78
2023-03-29T16:33:35.597Z,5.40
2023-03-29T16:36:03.666Z,5.72
2023-03-29T16:38:31.885Z,5.38
2023-03-29T16:41:00.267Z,5.18
2023-03-29T16:43:28.898Z,4.90
2023-03-29T16:45:57.175Z,5.15
2023-03-29T16:48:25.374Z,5.70
2023-03-29T16:50:54.873Z,4.18
2023-03-29T16:53:23.711Z,4.95
2023-03-29T16:55:51.761Z,4.65
2023-03-29T16:58:19.777Z,5.78
2023-03-29T17:00:48.609Z,5.75
2023-03-29T17:03:17.045Z,4.40
2023-03-29T17:05:48.392Z,5.43
2023-03-29T17:08:17.870Z,5.03
2023-03-29T17:10:46.456Z,5.20
2023-03-29T17:13:14.567Z,5.55
2023-03-29T17:15:45.819Z,5.35
2023-03-29T17:18:14.174Z,5.68
2023-03-29T17:20:42.335Z,5.60
2023-03-29T17:23:11.105Z,5.35
2023-03-29T17:25:40.719Z,5.97
2023-03-29T17:28:08.987Z,5.55
2023-03-29T17:30:37.331Z,5.82
2023-03-29T17:33:05.886Z,6.28
2023-03-29T17:35:34.009Z,5.40
2023-03-29T17:38:02.989Z,5.75
2023-03-29T17:40:31.236Z,5.95
2023-03-29T17:43:00.703Z,5.80
2023-03-29T17:45:28.884Z,5.82
2023-03-29T17:47:57.111Z,5.30
2023-03-29T17:50:25.172Z,5.95
2023-03-29T17:52:53.256Z,5.93
2023-03-29T17:55:21.413Z,5.70
2023-03-29T17:57:50.082Z,6.15
2023-03-29T18:00:20.710Z,6.22
2023-03-29T18:02:49.062Z,6.57
2023-03-29T18:05:17.973Z,6.43
2023-03-29T18:07:46.232Z,6.22
2023-03-29T18:10:14.338Z,6.35
2023-03-29T18:12:42.387Z,6.22
2023-03-29T18:15:11.336Z,5.93
2023-03-29T18:17:40.647Z,6.43
2023-03-29T18:20:11.919Z,5.80
2023-03-29T18:22:41.406Z,5.82
2023-03-29T18:25:11.210Z,6.63
2023-03-29T18:27:39.539Z,5.93
2023-03-29T18:30:09.360Z,6.13
2023-03-29T18:32:37.692Z,5.70
2023-03-29T18:35:08.356Z,6.32
2023-03-29T18:37:36.447Z,6.43
2023-03-29T18:40:07.928Z,5.82
2023-03-29T18:42:36.055Z,5.93
2023-03-29T18:45:04.679Z,5.82
2023-03-29T18:47:33.315Z,5.97
2023-03-29T18:50:02.790Z,6.60
2023-03-29T18:52:32.360Z,6.30
2023-03-29T18:55:00.515Z,5.60
2023-03-29T18:57:28.687Z,6.88
2023-03-29T18:59:56.784Z,7.40
2023-03-29T19:02:24.794Z,7.07
2023-03-29T19:04:52.875Z,6.97
2023-03-29T19:07:22.036Z,7.20
2023-03-29T19:09:51.672Z,8.13
2023-03-29T19:12:19.730Z,7.32
2023-03-29T19:14:47.777Z,8.63
2023-03-29T19:17:16.104Z,8.52
2023-03-29T19:19:44.078Z,8.35
2023-03-29T19:22:12.042Z,8.18
2023-03-29T19:24:40.169Z,8.38
2023-03-29T19:27:11.385Z,8.20
2023-03-29T19:29:41.112Z,8.38
2023-03-29T19:32:09.076Z,8.35
2023-03-29T19:34:37.262Z,8.30
2023-03-29T19:37:05.234Z,8.57
2023-03-29T19:39:33.310Z,8.40
2023-03-29T19:42:01.481Z,8.40
2023-03-29T19:44:31.037Z,8.27
2023-03-29T19:46:59.274Z,8.00
2023-03-29T19:49:27.430Z,8.55
2023-03-29T19:51:57.413Z,8.77
2023-03-29T19:54:26.345Z,8.20
2023-03-29T19:56:57.418Z,8.10
2023-03-29T19:59:25.512Z,7.38
2023-03-29T20:01:56.921Z,8.05
2023-03-29T20:04:25.931Z,9.00
2023-03-29T20:06:53.969Z,8.40
2023-03-29T20:09:22.189Z,8.60
2023-03-29T20:11:50.374Z,8.55
2023-03-29T20:14:18.360Z,9.30
2023-03-29T20:16:46.666Z,9.40
2023-03-29T20:19:17.474Z,9.77
2023-03-29T20:21:45.726Z,9.02
2023-03-29T20:24:13.719Z,9.20
2023-03-29T20:26:41.930Z,8.90
2023-03-29T20:29:10.039Z,9.07
2023-03-29T20:31:38.037Z,8.43
2023-03-29T20:34:06.100Z,7.72
2023-03-29T20:36:35.795Z,8.35
2023-03-29T20:39:04.576Z,8.07
2023-03-29T20:41:33.860Z,8.52
2023-03-29T20:44:02.838Z,8.25
2023-03-29T20:46:34.206Z,7.60
2023-03-29T20:49:02.893Z,8.25
2023-03-29T20:51:32.170Z,9.25
2023-03-29T20:54:05.994Z,8.93
2023-03-29T20:56:35.448Z,8.00
2023-03-29T20:59:04.081Z,7.97
2023-03-29T21:01:32.648Z,7.53
2023-03-29T21:04:00.844Z,8.13
2023-03-29T21:06:28.892Z,8.10
2023-03-29T21:08:57.482Z,8.20
2023-03-29T21:11:27.608Z,8.02
2023-03-29T21:13:55.635Z,7.43
2023-03-29T21:16:25.432Z,8.23
2023-03-29T21:18:54.317Z,7.45
2023-03-29T21:21:22.998Z,7.55
2023-03-29T21:23:50.907Z,7.18
2023-03-29T21:26:19.084Z,8.13
2023-03-29T21:28:48.724Z,7.20
2023-03-29T21:31:16.947Z,7.75
2023-03-29T21:33:44.995Z,7.60
2023-03-29T21:36:13.146Z,7.30
2023-03-29T21:38:41.543Z,7.07
2023-03-29T21:41:10.817Z,7.13
2023-03-29T21:43:38.905Z,6.80
2023-03-29T21:46:08.607Z,6.97
2023-03-29T21:48:36.900Z,7.40
2023-03-29T21:51:06.487Z,6.55
2023-03-29T21:53:34.664Z,6.93
2023-03-29T21:56:03.091Z,7.07
2023-03-29T21:58:31.225Z,7.05
2023-03-29T22:00:59.276Z,6.90
2023-03-29T22:03:28.704Z,6.47
2023-03-29T22:06:01.222Z,6.97
2023-03-29T22:08:29.747Z,7.18
2023-03-29T22:10:58.330Z,7.32
2023-03-29T22:13:27.267Z,7.18
2023-03-29T22:15:58.614Z,7.13
2023-03-29T22:18:30.196Z,6.55
2023-03-29T22:20:58.668Z,7.25
2023-03-29T22:23:26.595Z,6.90
2023-03-29T22:25:54.751Z,7.72
2023-03-29T22:28:22.920Z,7.03
2023-03-29T22:30:51.058Z,7.60
2023-03-29T22:33:19.133Z,7.53
2023-03-29T22:35:48.624Z,7.60
2023-03-29T22:38:16.560Z,6.93
2023-03-29T22:40:44.682Z,7.07
2023-03-29T22:43:12.570Z,7.22
2023-03-29T22:45:40.618Z,7.60
2023-03-29T22:48:08.756Z,6.97
2023-03-29T22:50:36.742Z,7.63
2023-03-29T22:53:06.089Z,7.38
2023-03-29T22:55:34.110Z,7.68
2023-03-29T22:58:02.061Z,7.43
2023-03-29T23:00:30.056Z,7.30
2023-03-29T23:02:58.256Z,7.88
2023-03-29T23:05:26.469Z,7.50
2023-03-29T23:07:55.806Z,7.28
2023-03-29T23:10:28.946Z,7.93
2023-03-29T23:13:08.854Z,7.63
2023-03-29T23:15:37.378Z,7.60
2023-03-29T23:18:06.295Z,7.63
2023-03-29T23:20:34.383Z,7.50
2023-03-29T23:23:02.522Z,7.68
2023-03-29T23:25:32.147Z,8.05
2023-03-29T23:28:00.202Z,8.32
2023-03-29T23:30:29.773Z,8.68
2023-03-29T23:32:58.259Z,8.13
2023-03-29T23:35:26.552Z,7.65
2023-03-29T23:37:54.507Z,7.93
2023-03-29T23:40:22.709Z,7.47
2023-03-29T23:42:53.057Z,8.13
2023-03-29T23:45:21.040Z,8.05
2023-03-29T23:47:48.981Z,8.02
2023-03-29T23:50:17.143Z,7.82
2023-03-29T23:52:46.674Z,7.93
2023-03-29T23:55:15.582Z,8.63
2023-03-29T23:57:44.003Z,7.97
